This is the latest recevied weather packets stored in our database for station/object YN7ZGH-13. If no packets are shown the sender has not sent any weather packets the latest 1 day(s).
| Time | Temp. | Humidity | Pressure | Rain* | Wind** | Luminosity | Snow |
|---|---|---|---|---|---|---|---|
| 1778043808 | 30° C | 65% | 1012 hPa | 0 mm | - | - | - |
| 1778042607 | 30° C | 65% | 1012 hPa | 0 mm | - | - | - |
| 1778041406 | 30° C | 65% | 1012 hPa | 0 mm | - | - | - |
| 1778040805 | 30° C | 65% | 1012 hPa | 0 mm | - | - | - |
| 1778040205 | 30° C | 65% | 1012 hPa | 0 mm | - | - | - |
| 1778039004 | 30° C | 64% | 1011 hPa | 0 mm | - | - | - |
| 1778037803 | 31.67° C | 61% | 1011 hPa | 0 mm | - | - | - |
| 1778037203 | 31.11° C | 61% | 1011 hPa | 0 mm | - | - | - |
| 1778036001 | 31.11° C | 61% | 1011 hPa | 0 mm | - | - | - |
| 1778035401 | 31.11° C | 61% | 1011 hPa | 0 mm | - | - | - |
| 1778034800 | 31.11° C | 61% | 1011 hPa | 0 mm | - | - | - |
| 1778034200 | 31.11° C | 61% | 1010 hPa | 0 mm | - | - | - |
| 1778032399 | 32.22° C | 52% | 1010 hPa | 0 mm | - | - | - |
| 1778031798 | 32.22° C | 51% | 1010 hPa | 0 mm | - | - | - |
| 1778031197 | 32.22° C | 50% | 1010 hPa | 0 mm | - | - | - |
| 1778030597 | 32.22° C | 49% | 1009 hPa | 0 mm | - | - | - |
| 1778027804 | 31.67° C | 46% | 1009 hPa | 0 mm | - | - | - |
| 1778026603 | 32.78° C | 46% | 1009 hPa | 0 mm | - | - | - |
| 1778024802 | 33.33° C | 45% | 1008 hPa | 0 mm | - | - | - |
| 1778023601 | 34.44° C | 39% | 1008 hPa | 0 mm | - | - | - |
| 1778023000 | 34.44° C | 38% | 1008 hPa | 0 mm | - | - | - |
| 1778019397 | 34.44° C | 38% | 1007 hPa | 0 mm | - | - | - |
| 1778016995 | 34.44° C | 38% | 1008 hPa | 0 mm | - | - | - |
| 1778015793 | 34.44° C | 38% | 1008 hPa | 0 mm | - | - | - |
| 1778012790 | 34.44° C | 41% | 1008 hPa | 0 mm | - | - | - |
* Rain latest hour (hover to see other rain measurements)
** Current wind speed in m/s (hover to see current wind gust speed)